Time;durP1;ratioP1;P1;durP2;ratioP2;P2;SDS_P1;SDS_P2;PMS_P1;PMS_P2;Temp;Humidity;BMP_temperature;BMP_pressure;BME280_temperature;BME280_humidity;BME280_pressure;Samples;Min_cycle;Max_cycle;Signal;HPM_P1;HPM_P2
2020/12/07 00:00:36;;;;;;;8.77;5.15;;;21.20;57.90;;;;;;5061636;28;45301;-53
2020/12/07 00:03:02;;;;;;;9.10;5.03;;;21.20;57.90;;;;;;5061367;28;45517;-53
2020/12/07 00:05:28;;;;;;;11.20;5.63;;;21.20;57.90;;;;;;5060559;28;45481;-51
2020/12/07 00:07:53;;;;;;;8.02;4.93;;;21.20;57.90;;;;;;5061019;28;45461;-53
2020/12/07 00:10:19;;;;;;;8.73;5.38;;;21.20;57.90;;;;;;5061075;28;45406;-54
2020/12/07 00:12:45;;;;;;;8.65;5.05;;;21.20;57.90;;;;;;5060513;28;45377;-53
2020/12/07 00:15:12;;;;;;;7.80;4.05;;;21.20;57.90;;;;;;5048355;28;46947;-55
2020/12/07 00:17:37;;;;;;;7.30;4.82;;;21.20;57.90;;;;;;5077550;28;45385;-54
2020/12/07 00:20:04;;;;;;;8.65;4.47;;;21.20;57.80;;;;;;5044098;28;45439;-53
2020/12/07 00:22:30;;;;;;;8.93;5.30;;;21.20;57.80;;;;;;5045464;28;45426;-53
2020/12/07 00:24:57;;;;;;;8.48;5.07;;;21.10;57.70;;;;;;5040718;28;46027;-54
2020/12/07 00:27:26;;;;;;;8.18;5.00;;;21.10;57.70;;;;;;5047322;28;45361;-54
2020/12/07 00:29:52;;;;;;;7.30;4.68;;;21.20;57.80;;;;;;5046703;28;45538;-54
2020/12/07 00:32:18;;;;;;;7.82;4.45;;;21.10;57.70;;;;;;5048033;28;45369;-53
2020/12/07 00:34:44;;;;;;;9.25;4.82;;;21.10;57.70;;;;;;5047531;28;46137;-54
2020/12/07 00:37:09;;;;;;;7.82;4.28;;;21.10;57.70;;;;;;5047824;28;45784;-53
2020/12/07 00:39:35;;;;;;;7.50;4.40;;;21.10;57.70;;;;;;5062734;28;45347;-53
2020/12/07 00:42:02;;;;;;;8.35;4.97;;;21.10;57.60;;;;;;5064552;28;45521;-54
2020/12/07 00:44:27;;;;;;;7.25;4.85;;;21.10;57.70;;;;;;5061142;28;47022;-52
2020/12/07 00:46:53;;;;;;;9.57;4.70;;;21.10;57.70;;;;;;5044574;28;45264;-52
2020/12/07 00:49:18;;;;;;;6.93;4.20;;;21.10;57.70;;;;;;5030675;28;45350;-51
2020/12/07 00:51:44;;;;;;;7.47;4.82;;;21.10;57.60;;;;;;5029964;28;45501;-51
2020/12/07 00:54:09;;;;;;;7.15;4.72;;;21.10;57.60;;;;;;5030168;28;46515;-52
2020/12/07 00:56:35;;;;;;;7.60;4.28;;;21.10;57.60;;;;;;5045961;28;45417;-51
2020/12/07 00:59:01;;;;;;;9.02;5.15;;;21.10;57.60;;;;;;5030189;28;45740;-51
2020/12/07 01:01:26;;;;;;;8.82;4.82;;;21.10;57.60;;;;;;5025748;28;45460;-51
2020/12/07 01:03:52;;;;;;;7.68;4.28;;;21.10;57.60;;;;;;5063091;28;47021;-51
2020/12/07 01:06:17;;;;;;;6.65;4.47;;;21.10;57.60;;;;;;5061915;28;45415;-51
2020/12/07 01:08:43;;;;;;;6.40;4.20;;;21.00;57.60;;;;;;5030206;28;45431;-53
2020/12/07 01:11:09;;;;;;;7.20;4.53;;;21.00;57.60;;;;;;5028808;28;45337;-54
2020/12/07 01:13:34;;;;;;;7.18;4.50;;;21.00;57.60;;;;;;5028805;28;46073;-53
2020/12/07 01:16:00;;;;;;;7.22;4.80;;;21.00;57.50;;;;;;5045734;28;45343;-53
2020/12/07 01:18:25;;;;;;;6.05;4.10;;;21.00;57.50;;;;;;5041057;28;45491;-52
2020/12/07 01:20:51;;;;;;;6.80;4.28;;;21.00;57.60;;;;;;5029798;28;45475;-53
2020/12/07 01:23:17;;;;;;;6.65;4.30;;;21.00;57.60;;;;;;5029272;28;46328;-53
2020/12/07 01:25:43;;;;;;;6.30;4.00;;;21.00;57.70;;;;;;5030143;28;45607;-51
2020/12/07 01:28:09;;;;;;;7.82;4.80;;;21.00;57.60;;;;;;5028569;28;45325;-54
2020/12/07 01:30:34;;;;;;;6.18;3.80;;;21.00;57.70;;;;;;5047018;28;45717;-54
2020/12/07 01:33:00;;;;;;;7.55;4.50;;;21.00;57.60;;;;;;5045337;28;45672;-53
2020/12/07 01:35:25;;;;;;;6.22;3.83;;;21.00;57.60;;;;;;5061588;28;45628;-53
2020/12/07 01:37:51;;;;;;;8.05;4.43;;;21.00;57.60;;;;;;5063074;28;45411;-53
2020/12/07 01:40:16;;;;;;;6.10;4.18;;;21.00;57.60;;;;;;5063364;28;45449;-53
2020/12/07 01:42:42;;;;;;;6.95;4.40;;;21.00;57.60;;;;;;5062944;28;45614;-53
2020/12/07 01:45:08;;;;;;;6.70;4.18;;;21.00;57.60;;;;;;5062339;28;45372;-53
2020/12/07 01:47:33;;;;;;;6.03;3.70;;;21.00;57.60;;;;;;5062977;28;45347;-53
2020/12/07 01:49:59;;;;;;;6.25;3.92;;;21.00;57.60;;;;;;5063762;28;45463;-53
2020/12/07 01:52:25;;;;;;;5.47;3.40;;;21.00;57.60;;;;;;5062238;28;45996;-54
2020/12/07 01:54:51;;;;;;;5.68;3.70;;;20.90;57.50;;;;;;5062447;28;45379;-54
2020/12/07 01:57:17;;;;;;;7.35;4.35;;;21.00;57.50;;;;;;5062942;28;45291;-54
2020/12/07 01:59:43;;;;;;;7.03;4.15;;;21.00;57.60;;;;;;5062988;28;45633;-54
2020/12/07 02:02:08;;;;;;;6.88;3.90;;;20.90;57.50;;;;;;5061928;28;46220;-53
2020/12/07 02:04:34;;;;;;;7.35;4.18;;;20.90;57.50;;;;;;5062954;28;45331;-53
2020/12/07 02:06:59;;;;;;;6.63;4.68;;;20.90;57.40;;;;;;5045884;28;45456;-54
2020/12/07 02:09:26;;;;;;;8.35;4.43;;;20.90;57.50;;;;;;5047653;28;45439;-53
2020/12/07 02:11:52;;;;;;;5.68;3.47;;;20.90;57.40;;;;;;5061888;28;46071;-57
2020/12/07 02:14:18;;;;;;;6.60;3.90;;;20.90;57.40;;;;;;5062533;28;45497;-54
2020/12/07 02:16:43;;;;;;;6.95;3.53;;;20.90;57.40;;;;;;5062127;28;45528;-57
2020/12/07 02:19:09;;;;;;;6.97;3.80;;;20.90;57.40;;;;;;5062305;28;45307;-54
2020/12/07 02:21:34;;;;;;;6.82;4.03;;;20.90;57.40;;;;;;5062538;28;46688;-54
2020/12/07 02:24:00;;;;;;;6.55;4.30;;;20.90;57.30;;;;;;5062017;28;45391;-54
2020/12/07 02:26:26;;;;;;;7.13;3.83;;;20.90;57.30;;;;;;5062562;28;45307;-53
2020/12/07 02:28:51;;;;;;;6.50;4.05;;;20.90;57.30;;;;;;5062590;28;45610;-53
2020/12/07 02:31:17;;;;;;;5.93;3.92;;;20.90;57.30;;;;;;5062158;28;47177;-53
2020/12/07 02:33:42;;;;;;;6.50;3.50;;;20.90;57.30;;;;;;5062377;28;45512;-52
2020/12/07 02:36:09;;;;;;;7.60;3.90;;;20.90;57.30;;;;;;5061109;28;45375;-53
2020/12/07 02:38:35;;;;;;;6.78;3.83;;;20.90;57.30;;;;;;5062005;28;45572;-51
2020/12/07 02:41:00;;;;;;;6.00;3.85;;;20.90;57.30;;;;;;5062466;28;46353;-53
2020/12/07 02:43:26;;;;;;;6.00;3.88;;;20.90;57.30;;;;;;5061353;28;45246;-51
2020/12/07 02:45:51;;;;;;;8.00;3.65;;;20.90;57.30;;;;;;5061820;28;45225;-52
2020/12/07 02:48:17;;;;;;;5.88;3.70;;;20.80;57.20;;;;;;5062723;28;45502;-52
2020/12/07 02:50:43;;;;;;;4.40;3.00;;;20.90;57.30;;;;;;5061610;28;45439;-52
2020/12/07 02:53:08;;;;;;;5.72;3.60;;;20.90;57.30;;;;;;5061655;28;45318;-52
2020/12/07 02:55:34;;;;;;;7.30;3.88;;;20.80;57.20;;;;;;5062097;28;45576;-52
2020/12/07 02:57:59;;;;;;;5.18;3.35;;;20.80;57.20;;;;;;5062689;28;45328;-51
2020/12/07 03:00:25;;;;;;;5.22;3.25;;;20.80;57.20;;;;;;5061118;28;46396;-52
2020/12/07 03:02:51;;;;;;;5.97;3.72;;;20.80;57.20;;;;;;5061621;28;45307;-52
2020/12/07 03:05:16;;;;;;;7.05;3.35;;;20.80;57.20;;;;;;5061932;28;45803;-52
2020/12/07 03:07:42;;;;;;;4.88;3.10;;;20.80;57.10;;;;;;5061937;28;45461;-52
2020/12/07 03:10:07;;;;;;;5.72;3.40;;;20.80;57.20;;;;;;5059826;28;45423;-52
2020/12/07 03:12:33;;;;;;;5.03;3.17;;;20.80;57.10;;;;;;5062372;28;45364;-52
2020/12/07 03:14:59;;;;;;;7.35;3.60;;;20.80;57.10;;;;;;5061898;28;45392;-51
2020/12/07 03:17:24;;;;;;;5.32;3.05;;;20.80;57.10;;;;;;5061646;28;45932;-52
2020/12/07 03:19:50;;;;;;;5.00;3.35;;;20.80;57.00;;;;;;5061297;28;46331;-52
2020/12/07 03:22:15;;;;;;;5.50;3.20;;;20.80;56.90;;;;;;5061321;28;45830;-52
2020/12/07 03:24:41;;;;;;;5.75;3.58;;;20.90;56.90;;;;;;5061511;28;45370;-52
2020/12/07 03:27:07;;;;;;;4.55;3.08;;;20.90;56.90;;;;;;5061434;28;45569;-53
2020/12/07 03:29:32;;;;;;;5.85;3.28;;;20.90;56.90;;;;;;5061619;28;46176;-53
2020/12/07 03:31:58;;;;;;;5.65;2.95;;;20.90;56.80;;;;;;5061844;28;45468;-54
2020/12/07 03:34:23;;;;;;;5.38;3.17;;;20.90;56.80;;;;;;5060496;28;45508;-53
2020/12/07 03:36:49;;;;;;;6.57;3.08;;;20.90;56.80;;;;;;5061615;28;45553;-53
2020/12/07 03:39:15;;;;;;;5.32;3.38;;;20.90;56.70;;;;;;5061182;28;45539;-52
2020/12/07 03:41:40;;;;;;;5.97;3.03;;;21.00;56.70;;;;;;5061159;28;45310;-52
2020/12/07 03:44:06;;;;;;;5.57;3.22;;;21.00;56.70;;;;;;5060710;28;45370;-52
2020/12/07 03:46:32;;;;;;;5.55;2.83;;;21.00;56.70;;;;;;5062155;28;45453;-52
2020/12/07 03:48:57;;;;;;;5.00;2.90;;;21.00;56.70;;;;;;5061105;28;46073;-51
2020/12/07 03:51:23;;;;;;;5.88;3.38;;;21.00;56.60;;;;;;5060654;28;46055;-55
2020/12/07 03:53:49;;;;;;;5.65;2.92;;;21.10;56.60;;;;;;5061855;28;45450;-53
2020/12/07 03:56:14;;;;;;;5.25;2.90;;;21.10;56.60;;;;;;5061620;28;45522;-53
2020/12/07 03:58:40;;;;;;;5.15;2.95;;;21.10;56.60;;;;;;5063170;28;46993;-54
2020/12/07 04:01:06;;;;;;;5.20;3.25;;;21.10;56.50;;;;;;5064069;28;45529;-53
2020/12/07 04:03:35;;;;;;;4.35;2.80;;;21.10;56.50;;;;;;5064924;28;45487;-53
2020/12/07 04:08:26;;;;;;;5.30;3.25;;;21.20;56.30;;;;;;5064665;28;45417;-52
2020/12/07 04:10:52;;;;;;;6.00;3.33;;;21.20;56.30;;;;;;5064338;28;45453;-53
2020/12/07 04:13:18;;;;;;;5.10;3.25;;;21.20;56.30;;;;;;5063811;28;45512;-53
2020/12/07 04:15:43;;;;;;;4.75;3.25;;;21.20;56.30;;;;;;5064677;28;45347;-53
2020/12/07 04:18:09;;;;;;;6.10;3.05;;;21.20;56.20;;;;;;5063966;28;46986;-54
2020/12/07 04:20:35;;;;;;;4.70;3.17;;;21.20;56.20;;;;;;5064649;28;45369;-54
2020/12/07 04:23:00;;;;;;;5.13;2.95;;;21.30;56.20;;;;;;5064243;28;45340;-52
2020/12/07 04:25:26;;;;;;;4.28;2.58;;;21.30;56.20;;;;;;5064198;28;45366;-53
2020/12/07 04:27:51;;;;;;;5.10;2.85;;;21.30;56.20;;;;;;5064362;28;45327;-52
2020/12/07 04:30:17;;;;;;;5.13;2.88;;;21.30;56.20;;;;;;5064453;28;45355;-53
2020/12/07 04:32:43;;;;;;;5.25;3.05;;;21.30;56.20;;;;;;5064234;28;45290;-53
2020/12/07 04:35:08;;;;;;;4.68;2.90;;;21.30;56.10;;;;;;5064599;28;45462;-53
2020/12/07 04:37:34;;;;;;;4.95;2.65;;;21.30;56.10;;;;;;5064074;28;46329;-54
2020/12/07 04:40:00;;;;;;;4.72;3.03;;;21.30;56.10;;;;;;5064490;28;45254;-53
2020/12/07 04:42:26;;;;;;;4.90;2.97;;;21.40;56.10;;;;;;5062999;28;45465;-53
2020/12/07 04:44:52;;;;;;;4.82;3.00;;;21.40;56.00;;;;;;5065149;28;45232;-52
2020/12/07 04:47:18;;;;;;;5.20;3.03;;;21.40;56.00;;;;;;5063135;28;46463;-53
2020/12/07 04:49:44;;;;;;;4.72;2.97;;;21.40;56.00;;;;;;5063100;28;45473;-53
2020/12/07 04:52:10;;;;;;;5.20;2.67;;;21.40;56.00;;;;;;5063667;28;45402;-52
2020/12/07 04:54:40;;;;;;;4.97;2.92;;;21.40;56.00;;;;;;5064888;28;45616;-52
2020/12/07 04:57:06;;;;;;;4.25;2.60;;;21.40;56.00;;;;;;5063481;28;46258;-52
2020/12/07 04:59:32;;;;;;;4.65;2.83;;;21.40;56.00;;;;;;5063037;28;45680;-52
2020/12/07 05:01:58;;;;;;;4.82;2.90;;;21.40;56.00;;;;;;5063609;28;45374;-52
2020/12/07 05:04:24;;;;;;;4.38;2.65;;;21.50;56.00;;;;;;5063850;28;45617;-53
2020/12/07 05:07:07;;;;;;;5.28;2.67;;;21.40;55.90;;;;;;5062160;28;47113;-55
2020/12/07 05:09:33;;;;;;;4.97;2.75;;;21.40;55.80;;;;;;5046808;28;45371;-55
2020/12/07 05:12:02;;;;;;;5.00;2.67;;;21.50;55.80;;;;;;5030201;28;45538;-53
2020/12/07 05:14:29;;;;;;;4.63;2.47;;;21.50;55.80;;;;;;5030964;28;45273;-54
2020/12/07 05:16:55;;;;;;;4.65;2.95;;;21.40;55.70;;;;;;5012757;28;47782;-54
2020/12/07 05:19:21;;;;;;;4.35;2.47;;;21.50;55.80;;;;;;5030474;28;45510;-54
2020/12/07 05:21:47;;;;;;;4.65;2.90;;;21.50;55.70;;;;;;5030399;28;45276;-54
2020/12/07 05:24:12;;;;;;;4.00;2.35;;;21.50;55.70;;;;;;5029854;28;46080;-54
2020/12/07 05:26:38;;;;;;;4.70;2.60;;;21.60;55.70;;;;;;5029618;28;46853;-54
2020/12/07 05:29:12;;;;;;;3.65;2.10;;;21.60;55.70;;;;;;5029400;28;45321;-53
2020/12/07 05:31:37;;;;;;;5.90;2.35;;;21.60;55.70;;;;;;5030804;28;45566;-54
2020/12/07 05:34:04;;;;;;;4.97;2.90;;;21.60;56.00;;;;;;5046661;28;45551;-53
2020/12/07 05:36:30;;;;;;;5.28;2.80;;;21.60;56.10;;;;;;5025702;28;47489;-54
2020/12/07 05:38:55;;;;;;;4.55;2.42;;;21.60;56.40;;;;;;5037077;28;45438;-53
2020/12/07 05:41:24;;;;;;;6.80;3.20;;;21.60;56.30;;;;;;5045908;28;45434;-53
2020/12/07 05:43:53;;;;;;;4.75;2.67;;;21.60;56.30;;;;;;5032117;28;45455;-53
2020/12/07 05:46:23;;;;;;;4.82;2.38;;;21.60;56.20;;;;;;5010850;28;45432;-54
2020/12/07 05:48:49;;;;;;;4.38;2.53;;;21.70;56.20;;;;;;5060732;28;45542;-54
2020/12/07 05:51:15;;;;;;;4.63;2.75;;;21.70;56.20;;;;;;5060896;28;45478;-54
2020/12/07 05:53:41;;;;;;;3.50;2.15;;;21.70;56.10;;;;;;5062173;28;45497;-54
2020/12/07 05:56:08;;;;;;;6.38;2.33;;;21.70;56.20;;;;;;5061160;28;45336;-54
2020/12/07 05:58:56;;;;;;;4.57;2.80;;;21.70;56.20;;;;;;5060483;28;45504;-53
2020/12/07 06:01:24;;;;;;;4.22;2.58;;;21.70;56.20;;;;;;5042933;28;45372;-53
2020/12/07 06:03:51;;;;;;;4.72;2.50;;;21.70;56.10;;;;;;5061334;28;45323;-54
2020/12/07 06:06:19;;;;;;;4.78;2.13;;;21.70;56.10;;;;;;5060124;28;46171;-53
2020/12/07 06:08:45;;;;;;;4.00;2.40;;;21.80;56.10;;;;;;5059955;28;45398;-54
2020/12/07 06:11:10;;;;;;;4.50;2.67;;;21.80;56.10;;;;;;5062828;28;45316;-53
2020/12/07 06:13:36;;;;;;;4.60;2.72;;;21.80;56.00;;;;;;5063108;28;45355;-54
2020/12/07 06:16:05;;;;;;;4.45;2.33;;;21.80;56.00;;;;;;5061538;28;47422;-54
2020/12/07 06:18:32;;;;;;;4.25;2.55;;;21.80;55.90;;;;;;5062297;28;45496;-52
2020/12/07 06:21:02;;;;;;;4.18;2.70;;;21.80;56.00;;;;;;5061796;28;45414;-54
2020/12/07 06:23:35;;;;;;;4.60;2.78;;;21.80;55.90;;;;;;5062205;28;45560;-55
2020/12/07 06:26:02;;;;;;;4.32;2.20;;;21.80;55.80;;;;;;5057906;28;47354;-52
2020/12/07 06:28:32;;;;;;;4.45;2.47;;;21.90;55.80;;;;;;5044796;28;45525;-53
2020/12/07 06:31:21;;;;;;;4.05;2.40;;;21.90;55.80;;;;;;5061010;28;45432;-53
2020/12/07 06:33:47;;;;;;;4.18;2.10;;;21.90;55.70;;;;;;5042385;28;45493;-54
2020/12/07 06:36:22;;;;;;;4.20;2.53;;;21.90;55.70;;;;;;5043374;28;46479;-53
2020/12/07 06:38:48;;;;;;;;;;;22.00;55.70;;;;;;5046278;28;45527;-54
2020/12/07 06:41:13;;;;;;;4.15;2.40;;;22.00;55.70;;;;;;5045001;28;45430;-54
2020/12/07 06:43:39;;;;;;;4.45;2.65;;;22.00;55.70;;;;;;5042769;28;45652;-55
2020/12/07 06:46:04;;;;;;;6.45;2.50;;;22.10;55.60;;;;;;5059391;28;46601;-55
2020/12/07 06:48:34;;;;;;;4.93;2.53;;;22.00;55.40;;;;;;5061578;28;45330;-54
2020/12/07 06:50:59;;;;;;;6.78;2.95;;;22.00;55.20;;;;;;5056128;28;45733;-53
2020/12/07 06:53:41;;;;;;;8.05;2.67;;;22.10;55.00;;;;;;5045748;28;45552;-53
2020/12/07 06:56:08;;;;;;;6.10;2.78;;;22.10;54.90;;;;;;5030511;28;46185;-53
2020/12/07 06:58:38;;;;;;;10.75;3.25;;;22.00;54.60;;;;;;5028814;28;45316;-54
2020/12/07 07:01:10;;;;;;;10.55;3.20;;;22.00;54.20;;;;;;5027604;28;45466;-53
2020/12/07 07:03:37;;;;;;;7.03;2.80;;;22.00;53.10;;;;;;5046819;28;45470;-54
2020/12/07 07:06:09;;;;;;;7.60;3.45;;;21.90;53.40;;;;;;5061237;28;47109;-54
2020/12/07 07:08:37;;;;;;;7.57;4.25;;;22.00;54.20;;;;;;5061387;28;45358;-52
2020/12/07 07:11:08;;;;;;;7.25;4.50;;;22.10;53.40;;;;;;5061725;28;45533;-53
2020/12/07 07:13:33;;;;;;;9.13;4.25;;;22.10;53.20;;;;;;5061218;28;45406;-52
2020/12/07 07:16:00;;;;;;;8.88;4.28;;;22.10;53.30;;;;;;5061355;28;45412;-53
2020/12/07 07:18:26;;;;;;;8.88;4.72;;;22.10;53.40;;;;;;5061416;28;45319;-53
2020/12/07 07:20:51;;;;;;;7.90;4.00;;;22.10;53.40;;;;;;5061392;28;45452;-53
2020/12/07 07:23:17;;;;;;;8.85;4.47;;;22.10;53.10;;;;;;5061752;28;45537;-53
2020/12/07 07:25:53;;;;;;;5.78;3.55;;;22.10;52.90;;;;;;5061277;28;48041;-52
2020/12/07 07:28:18;;;;;;;9.40;3.53;;;22.00;52.70;;;;;;5058453;28;45434;-59
2020/12/07 07:30:44;;;;;;;6.63;3.08;;;22.20;53.40;;;;;;5035188;28;45343;-62
2020/12/07 07:33:10;;;;;;;7.47;3.67;;;22.10;53.20;;;;;;5021003;28;45461;-53
2020/12/07 07:35:37;;;;;;;8.95;3.22;;;22.10;54.40;;;;;;5035711;28;46805;-55
2020/12/07 07:38:02;;;;;;;9.93;4.22;;;22.10;54.20;;;;;;5048336;28;45601;-51
2020/12/07 07:40:29;;;;;;;13.52;4.53;;;22.10;54.30;;;;;;5063604;28;45394;-50
2020/12/07 07:42:58;;;;;;;11.23;4.88;;;22.10;54.90;;;;;;5031464;28;45658;-50
2020/12/07 07:45:25;;;;;;;13.02;4.70;;;22.10;55.00;;;;;;5046570;28;46251;-50
2020/12/07 08:17:56;;;;;;;7.80;3.42;;;22.60;53.70;;;;;;5062976;28;45451;-55
2020/12/07 08:20:27;;;;;;;7.90;3.80;;;22.60;53.80;;;;;;5069225;28;45422;-57
2020/12/07 08:23:05;;;;;;;9.52;3.50;;;22.60;53.50;;;;;;5069153;28;45761;-54
2020/12/07 08:25:49;;;;;;;8.07;3.70;;;22.60;53.60;;;;;;5065536;28;45908;-55
2020/12/07 08:28:37;;;;;;;6.53;3.15;;;22.70;53.60;;;;;;5069819;28;46031;-55
2020/12/07 08:31:07;;;;;;;8.15;3.00;;;22.70;53.60;;;;;;5037781;28;45388;-54
2020/12/07 08:33:38;;;;;;;6.60;3.10;;;22.80;54.30;;;;;;5064530;28;45810;-52
2020/12/07 08:36:04;;;;;;;7.22;3.55;;;22.80;53.70;;;;;;5063984;28;45525;-57
2020/12/07 08:38:32;;;;;;;6.68;2.72;;;22.80;53.70;;;;;;5050671;28;45347;-55
2020/12/07 08:41:06;;;;;;;4.97;2.80;;;22.90;53.60;;;;;;5047266;28;45445;-55
2020/12/07 08:43:32;;;;;;;5.28;2.95;;;22.90;53.70;;;;;;5060914;28;45635;-56
2020/12/07 08:45:57;;;;;;;5.55;3.25;;;23.00;53.70;;;;;;5047733;28;45571;-58
2020/12/07 08:48:23;;;;;;;6.75;3.42;;;23.00;53.70;;;;;;5044442;28;46210;-53
2020/12/07 08:50:49;;;;;;;6.22;3.08;;;23.00;53.80;;;;;;5071426;28;45662;-57
2020/12/07 08:53:14;;;;;;;4.80;2.78;;;23.10;53.80;;;;;;5064053;28;45391;-57
2020/12/07 08:55:40;;;;;;;6.10;3.17;;;23.00;53.70;;;;;;5043840;28;45572;-57
2020/12/07 08:58:06;;;;;;;5.82;3.22;;;23.10;53.70;;;;;;5036429;28;46010;-58
2020/12/07 09:00:31;;;;;;;7.90;3.17;;;23.10;53.70;;;;;;5046557;28;45570;-58
2020/12/07 09:02:57;;;;;;;7.00;3.22;;;23.20;53.70;;;;;;5082200;28;45268;-54
2020/12/07 09:05:22;;;;;;;8.30;3.20;;;23.20;53.90;;;;;;5062496;28;45552;-51
2020/12/07 09:07:48;;;;;;;5.07;2.78;;;23.20;53.90;;;;;;5057859;28;46110;-50
2020/12/07 09:10:14;;;;;;;6.90;3.08;;;23.20;53.90;;;;;;5037367;28;45405;-59
2020/12/07 09:12:39;;;;;;;8.52;3.05;;;23.20;53.90;;;;;;5051898;28;45664;-60
2020/12/07 09:15:05;;;;;;;19.60;3.97;;;23.30;61.80;;;;;;5062912;28;45479;-57
2020/12/07 09:17:31;;;;;;;6.55;2.70;;;23.50;54.10;;;;;;5070100;28;46001;-59
2020/12/07 09:19:56;;;;;;;6.35;3.35;;;23.50;53.70;;;;;;5034258;28;45582;-65
2020/12/07 09:22:22;;;;;;;11.07;3.75;;;23.50;54.00;;;;;;5041230;28;45497;-64
2020/12/07 09:24:47;;;;;;;7.82;3.15;;;23.50;54.00;;;;;;5056451;28;45515;-62
2020/12/07 09:27:13;;;;;;;9.85;3.05;;;23.50;54.00;;;;;;5042563;28;46487;-62
2020/12/07 09:29:40;;;;;;;5.55;2.83;;;23.50;54.00;;;;;;5028266;28;45582;-65
2020/12/07 09:32:06;;;;;;;5.72;2.50;;;23.50;54.10;;;;;;5042549;28;45431;-62
2020/12/07 09:34:31;;;;;;;5.82;3.83;;;23.40;54.20;;;;;;5031084;28;45385;-59
2020/12/07 09:36:57;;;;;;;5.05;2.70;;;23.40;53.80;;;;;;5040884;28;46319;-62
2020/12/07 09:39:23;;;;;;;6.63;4.57;;;23.40;53.50;;;;;;5019883;28;45443;-57
2020/12/07 09:41:48;;;;;;;7.00;4.45;;;23.40;51.80;;;;;;5046092;28;45477;-59
2020/12/07 09:44:14;;;;;;;6.70;4.57;;;23.30;52.10;;;;;;5058522;28;45524;-61
2020/12/07 09:46:40;;;;;;;7.35;4.20;;;23.30;51.90;;;;;;5060539;28;45639;-63
2020/12/07 09:49:06;;;;;;;7.55;4.00;;;23.30;52.30;;;;;;5060324;28;46113;-59
2020/12/07 09:51:31;;;;;;;7.13;3.58;;;23.30;52.50;;;;;;5079909;28;45512;-60
2020/12/07 09:53:57;;;;;;;7.57;3.63;;;23.30;53.40;;;;;;5054976;28;45437;-68
2020/12/07 09:56:24;;;;;;;7.93;3.50;;;23.20;53.30;;;;;;5053602;28;45931;-64
2020/12/07 09:58:50;;;;;;;6.00;3.78;;;23.20;53.50;;;;;;5045275;28;45554;-70
2020/12/07 10:01:15;;;;;;;7.85;3.08;;;23.20;53.90;;;;;;5053285;28;45462;-72
2020/12/07 10:03:41;;;;;;;5.95;3.35;;;23.20;54.00;;;;;;5021146;28;45430;-60
2020/12/07 10:06:07;;;;;;;6.40;3.10;;;23.20;54.30;;;;;;5066973;28;46227;-60
2020/12/07 10:08:32;;;;;;;5.55;3.35;;;23.20;54.30;;;;;;5045047;28;45370;-60
2020/12/07 10:10:58;;;;;;;4.97;2.83;;;23.20;54.40;;;;;;5033233;28;45709;-60
2020/12/07 10:13:23;;;;;;;7.25;3.08;;;23.20;54.50;;;;;;5062742;28;45552;-62
2020/12/07 10:15:49;;;;;;;6.85;2.90;;;23.20;54.20;;;;;;5059994;28;45690;-69
2020/12/07 10:18:15;;;;;;;6.78;3.28;;;23.20;54.20;;;;;;5027577;28;45543;-62
2020/12/07 10:20:40;;;;;;;5.57;3.25;;;23.20;55.00;;;;;;5022295;28;45436;-69
2020/12/07 10:23:06;;;;;;;5.63;3.20;;;23.20;54.40;;;;;;5045361;28;46447;-64
2020/12/07 10:25:32;;;;;;;5.53;2.92;;;23.30;54.50;;;;;;5062031;28;46261;-64
2020/12/07 10:27:57;;;;;;;5.03;3.13;;;23.20;54.60;;;;;;5043282;28;45443;-60
2020/12/07 10:30:23;;;;;;;5.70;2.85;;;23.20;54.70;;;;;;5040734;28;45494;-61
2020/12/07 10:32:49;;;;;;;5.40;2.75;;;23.20;54.60;;;;;;5026708;28;45390;-60
2020/12/07 10:35:15;;;;;;;5.20;2.75;;;23.20;54.40;;;;;;5061519;28;47075;-57
2020/12/07 10:37:40;;;;;;;7.25;2.90;;;23.20;54.40;;;;;;5053799;28;45363;-59
2020/12/07 10:40:06;;;;;;;5.07;2.80;;;23.20;54.40;;;;;;5029418;28;45705;-60
2020/12/07 10:42:32;;;;;;;7.35;2.90;;;23.20;54.30;;;;;;5045452;28;45381;-61
2020/12/07 10:44:57;;;;;;;4.28;2.60;;;23.20;54.60;;;;;;5045076;28;46109;-63
2020/12/07 10:47:23;;;;;;;4.32;2.63;;;23.30;54.80;;;;;;5044272;28;45923;-66
2020/12/07 10:49:48;;;;;;;7.00;3.40;;;23.20;54.80;;;;;;5025929;28;45565;-60
2020/12/07 10:52:14;;;;;;;5.30;2.90;;;23.20;54.60;;;;;;5028430;28;45421;-63
2020/12/07 10:54:40;;;;;;;6.75;2.88;;;23.20;54.60;;;;;;5026475;28;46103;-63
2020/12/07 10:57:06;;;;;;;5.53;2.78;;;23.20;54.60;;;;;;5048894;28;45532;-63
2020/12/07 10:59:32;;;;;;;6.72;3.10;;;23.20;54.70;;;;;;5029234;28;45359;-63
2020/12/07 11:01:58;;;;;;;5.47;2.90;;;23.10;54.60;;;;;;5060638;28;45561;-64
2020/12/07 11:04:23;;;;;;;7.07;3.00;;;23.10;54.60;;;;;;5061257;28;45917;-64
2020/12/07 11:06:51;;;;;;;5.43;2.70;;;23.00;54.60;;;;;;5027688;28;45261;-67
2020/12/07 11:09:23;;;;;;;5.93;2.78;;;23.00;54.40;;;;;;5045523;28;45311;-64
2020/12/07 11:11:49;;;;;;;6.80;3.33;;;22.90;54.30;;;;;;5031443;28;45269;-61
2020/12/07 11:14:15;;;;;;;7.13;3.40;;;22.90;54.40;;;;;;5064362;28;47169;-63
2020/12/07 11:16:41;;;;;;;8.27;3.40;;;22.90;54.60;;;;;;5027335;28;45440;-62
2020/12/07 11:19:07;;;;;;;6.85;3.75;;;22.90;54.30;;;;;;5023066;28;45294;-61
2020/12/07 11:21:33;;;;;;;7.28;3.42;;;22.90;54.50;;;;;;5047113;28;45606;-61
2020/12/07 11:23:58;;;;;;;7.60;4.13;;;22.80;54.40;;;;;;5061743;28;46193;-62
2020/12/07 11:26:24;;;;;;;6.35;3.80;;;22.80;54.60;;;;;;5060012;28;45390;-62
2020/12/07 11:28:49;;;;;;;5.72;4.05;;;22.80;54.60;;;;;;5061247;28;45430;-63
2020/12/07 11:31:16;;;;;;;6.65;3.90;;;22.70;54.70;;;;;;5059536;28;45507;-61
2020/12/07 11:33:42;;;;;;;5.97;3.90;;;22.70;54.60;;;;;;5043128;28;47133;-62
2020/12/07 11:36:08;;;;;;;7.18;3.53;;;22.60;54.70;;;;;;5060903;28;45378;-66
2020/12/07 11:38:38;;;;;;;8.05;3.97;;;22.60;54.80;;;;;;5043826;28;45871;-63
2020/12/07 11:46:18;;;;;;;8.02;3.97;;;22.60;54.60;;;;;;5044249;28;45431;-63
2020/12/07 11:48:43;;;;;;;6.80;3.70;;;22.50;54.00;;;;;;5057351;28;45376;-62
2020/12/07 11:51:09;;;;;;;6.35;3.97;;;22.50;53.90;;;;;;5061175;28;45541;-68
2020/12/07 11:53:35;;;;;;;6.93;4.50;;;22.50;53.90;;;;;;5055640;28;47052;-65
2020/12/07 11:56:00;;;;;;;7.13;4.00;;;22.40;53.40;;;;;;5022544;28;45438;-65
2020/12/07 11:58:26;;;;;;;7.03;4.50;;;22.40;53.80;;;;;;5042146;28;45387;-62
2020/12/07 12:00:51;;;;;;;9.23;5.10;;;22.50;53.50;;;;;;5057253;28;45543;-61
2020/12/07 12:03:17;;;;;;;11.02;5.00;;;22.40;54.40;;;;;;5016609;28;45473;-63
2020/12/07 12:05:43;;;;;;;11.05;5.45;;;22.40;54.20;;;;;;5065245;28;45398;-67
2020/12/07 12:08:08;;;;;;;9.50;5.97;;;22.40;54.40;;;;;;5081053;28;45396;-64
2020/12/07 12:10:34;;;;;;;10.00;5.72;;;22.40;54.00;;;;;;5081789;28;45329;-66
2020/12/07 12:12:59;;;;;;;12.23;6.38;;;22.40;54.00;;;;;;5073374;28;46091;-63
2020/12/07 12:15:25;;;;;;;13.30;6.65;;;22.50;53.80;;;;;;5059486;28;45382;-60
2020/12/07 12:17:51;;;;;;;11.07;7.60;;;22.40;53.80;;;;;;5060122;28;45445;-61
2020/12/07 12:20:16;;;;;;;18.05;8.90;;;22.30;53.30;;;;;;5064074;28;45366;-62
2020/12/07 12:22:42;;;;;;;16.45;8.10;;;22.30;52.90;;;;;;5030536;28;45563;-66
2020/12/07 12:25:07;;;;;;;13.38;7.55;;;22.30;53.20;;;;;;5030554;28;45316;-69
2020/12/07 12:27:33;;;;;;;12.40;6.25;;;22.20;52.90;;;;;;5030765;28;45399;-65
2020/12/07 12:29:59;;;;;;;12.02;7.43;;;22.20;52.60;;;;;;5064237;28;45414;-61
2020/12/07 12:32:24;;;;;;;12.38;6.65;;;22.20;51.80;;;;;;5063199;28;46280;-61
2020/12/07 12:34:50;;;;;;;15.93;6.88;;;22.10;51.70;;;;;;5044296;28;45551;-63
2020/12/07 12:37:15;;;;;;;10.82;7.13;;;22.10;50.40;;;;;;5055442;28;46017;-61
2020/12/07 12:39:41;;;;;;;8.88;5.68;;;22.10;49.30;;;;;;5063772;28;45539;-59
2020/12/07 12:42:06;;;;;;;9.25;6.18;;;22.10;49.00;;;;;;5061921;28;45387;-64
2020/12/07 12:44:32;;;;;;;10.93;6.55;;;22.00;48.30;;;;;;5063308;28;45338;-60
2020/12/07 12:46:58;;;;;;;8.43;5.85;;;22.00;48.20;;;;;;5047233;28;45394;-60
2020/12/07 12:49:23;;;;;;;7.95;5.45;;;22.00;48.00;;;;;;5082843;28;45287;-62
2020/12/07 12:51:49;;;;;;;10.88;6.20;;;22.00;47.40;;;;;;5043050;28;45312;-62
2020/12/07 12:54:15;;;;;;;9.52;5.95;;;22.00;47.20;;;;;;5026332;28;45770;-64
2020/12/07 12:56:41;;;;;;;10.15;6.07;;;22.00;47.00;;;;;;5026817;28;45515;-62
2020/12/07 12:59:07;;;;;;;9.80;6.13;;;21.90;47.60;;;;;;5039337;28;45465;-57
2020/12/07 13:01:37;;;;;;;9.57;5.60;;;22.00;50.30;;;;;;5054294;28;46791;-63
2020/12/07 13:04:03;;;;;;;10.82;5.72;;;22.20;53.50;;;;;;5063368;28;45439;-66
2020/12/07 13:06:35;;;;;;;10.05;5.28;;;22.50;51.50;;;;;;5063669;28;45444;-63
2020/12/07 13:09:01;;;;;;;9.63;5.28;;;22.70;50.80;;;;;;5063508;28;45531;-64
2020/12/07 13:11:31;;;;;;;9.80;4.93;;;22.50;50.90;;;;;;5063116;28;47118;-65
2020/12/07 13:13:57;;;;;;;8.45;4.95;;;22.40;51.10;;;;;;5039860;28;45521;-66
2020/12/07 13:16:26;;;;;;;9.73;5.30;;;22.40;51.30;;;;;;5026905;28;45458;-66
2020/12/07 13:18:54;;;;;;;7.45;4.88;;;22.40;51.40;;;;;;5059444;27;45410;-69